sensor_id;sensor_type;location;lat;lon;timestamp;P1;durP1;ratioP1;P2;durP2;ratioP2
51485;SDS011;37565;51.352;6.412;2023-01-28T00:01:42;55.55;;;35.33;;
51485;SDS011;37565;51.352;6.412;2023-01-28T00:04:10;51.10;;;32.35;;
51485;SDS011;37565;51.352;6.412;2023-01-28T00:06:38;51.15;;;32.13;;
51485;SDS011;37565;51.352;6.412;2023-01-28T00:09:06;46.72;;;29.23;;
51485;SDS011;37565;51.352;6.412;2023-01-28T00:11:33;45.00;;;28.38;;
51485;SDS011;37565;51.352;6.412;2023-01-28T00:14:01;44.33;;;28.33;;
51485;SDS011;37565;51.352;6.412;2023-01-28T00:16:32;44.05;;;27.98;;
51485;SDS011;37565;51.352;6.412;2023-01-28T00:19:00;42.25;;;27.25;;
51485;SDS011;37565;51.352;6.412;2023-01-28T00:21:28;53.83;;;27.40;;
51485;SDS011;37565;51.352;6.412;2023-01-28T00:23:56;44.42;;;26.40;;
51485;SDS011;37565;51.352;6.412;2023-01-28T00:26:24;38.30;;;24.05;;
51485;SDS011;37565;51.352;6.412;2023-01-28T00:28:52;37.40;;;24.98;;
51485;SDS011;37565;51.352;6.412;2023-01-28T00:31:21;40.25;;;25.48;;
51485;SDS011;37565;51.352;6.412;2023-01-28T17:18:09;4.20;;;3.25;;
51485;SDS011;37565;51.352;6.412;2023-01-28T17:20:37;7.13;;;3.30;;
51485;SDS011;37565;51.352;6.412;2023-01-28T17:23:05;3.88;;;3.42;;
51485;SDS011;37565;51.352;6.412;2023-01-28T17:25:35;5.15;;;2.90;;
51485;SDS011;37565;51.352;6.412;2023-01-28T17:28:05;8.40;;;3.20;;
51485;SDS011;37565;51.352;6.412;2023-01-28T17:30:33;6.13;;;3.28;;
51485;SDS011;37565;51.352;6.412;2023-01-28T17:33:06;7.63;;;2.97;;
51485;SDS011;37565;51.352;6.412;2023-01-28T17:35:35;4.75;;;2.53;;
51485;SDS011;37565;51.352;6.412;2023-01-28T17:38:03;12.20;;;3.17;;
51485;SDS011;37565;51.352;6.412;2023-01-28T17:40:32;5.10;;;2.95;;
51485;SDS011;37565;51.352;6.412;2023-01-28T17:43:00;2.78;;;2.58;;
51485;SDS011;37565;51.352;6.412;2023-01-28T17:45:29;3.97;;;2.72;;
51485;SDS011;37565;51.352;6.412;2023-01-28T17:47:57;5.28;;;2.58;;
51485;SDS011;37565;51.352;6.412;2023-01-28T17:50:26;5.40;;;2.53;;
51485;SDS011;37565;51.352;6.412;2023-01-28T17:52:54;4.63;;;2.55;;
51485;SDS011;37565;51.352;6.412;2023-01-28T17:55:23;4.15;;;2.60;;
51485;SDS011;37565;51.352;6.412;2023-01-28T17:57:52;4.65;;;2.63;;
51485;SDS011;37565;51.352;6.412;2023-01-28T18:00:20;2.42;;;2.15;;
51485;SDS011;37565;51.352;6.412;2023-01-28T18:02:48;5.03;;;2.70;;
51485;SDS011;37565;51.352;6.412;2023-01-28T18:05:17;11.40;;;2.63;;
51485;SDS011;37565;51.352;6.412;2023-01-28T18:07:47;2.92;;;2.60;;
51485;SDS011;37565;51.352;6.412;2023-01-28T18:10:16;2.50;;;2.15;;
51485;SDS011;37565;51.352;6.412;2023-01-28T18:12:44;5.63;;;2.10;;
51485;SDS011;37565;51.352;6.412;2023-01-28T18:15:12;2.38;;;2.17;;
51485;SDS011;37565;51.352;6.412;2023-01-28T18:17:41;4.97;;;2.28;;
51485;SDS011;37565;51.352;6.412;2023-01-28T18:20:09;3.38;;;2.28;;
51485;SDS011;37565;51.352;6.412;2023-01-28T18:22:37;3.70;;;2.58;;
51485;SDS011;37565;51.352;6.412;2023-01-28T18:25:08;3.05;;;2.22;;
51485;SDS011;37565;51.352;6.412;2023-01-28T18:27:40;3.40;;;2.33;;
51485;SDS011;37565;51.352;6.412;2023-01-28T18:30:08;3.08;;;2.38;;
51485;SDS011;37565;51.352;6.412;2023-01-28T18:32:37;3.85;;;2.72;;
51485;SDS011;37565;51.352;6.412;2023-01-28T18:35:06;3.33;;;2.55;;
51485;SDS011;37565;51.352;6.412;2023-01-28T18:37:34;2.58;;;2.20;;
51485;SDS011;37565;51.352;6.412;2023-01-28T18:40:02;2.20;;;2.00;;
51485;SDS011;37565;51.352;6.412;2023-01-28T18:42:32;2.25;;;1.90;;
51485;SDS011;37565;51.352;6.412;2023-01-28T18:45:02;4.20;;;2.30;;
51485;SDS011;37565;51.352;6.412;2023-01-28T18:47:31;4.70;;;2.60;;
51485;SDS011;37565;51.352;6.412;2023-01-28T18:50:00;2.28;;;1.92;;
51485;SDS011;37565;51.352;6.412;2023-01-28T18:52:28;2.88;;;2.03;;
51485;SDS011;37565;51.352;6.412;2023-01-28T18:54:56;2.08;;;1.90;;
51485;SDS011;37565;51.352;6.412;2023-01-28T18:57:23;2.83;;;2.13;;
51485;SDS011;37565;51.352;6.412;2023-01-28T18:59:53;2.72;;;2.10;;
51485;SDS011;37565;51.352;6.412;2023-01-28T19:02:21;3.13;;;2.30;;
51485;SDS011;37565;51.352;6.412;2023-01-28T19:04:49;4.35;;;2.03;;
51485;SDS011;37565;51.352;6.412;2023-01-28T19:07:19;2.60;;;2.40;;
51485;SDS011;37565;51.352;6.412;2023-01-28T19:09:47;2.20;;;2.00;;
51485;SDS011;37565;51.352;6.412;2023-01-28T19:12:15;2.78;;;2.08;;
51485;SDS011;37565;51.352;6.412;2023-01-28T19:14:43;2.92;;;2.35;;
51485;SDS011;37565;51.352;6.412;2023-01-28T19:17:12;2.38;;;2.17;;
51485;SDS011;37565;51.352;6.412;2023-01-28T19:19:40;2.85;;;2.65;;
51485;SDS011;37565;51.352;6.412;2023-01-28T19:22:08;3.10;;;2.60;;
51485;SDS011;37565;51.352;6.412;2023-01-28T19:24:36;3.25;;;2.60;;
51485;SDS011;37565;51.352;6.412;2023-01-28T19:27:04;3.15;;;2.78;;
51485;SDS011;37565;51.352;6.412;2023-01-28T19:29:32;3.28;;;2.47;;
51485;SDS011;37565;51.352;6.412;2023-01-28T19:32:00;2.65;;;2.42;;
51485;SDS011;37565;51.352;6.412;2023-01-28T19:34:31;4.70;;;3.13;;
51485;SDS011;37565;51.352;6.412;2023-01-28T19:36:59;4.88;;;2.78;;
51485;SDS011;37565;51.352;6.412;2023-01-28T19:39:26;5.10;;;2.90;;
51485;SDS011;37565;51.352;6.412;2023-01-28T19:41:56;3.65;;;3.05;;
51485;SDS011;37565;51.352;6.412;2023-01-28T19:44:27;3.83;;;3.25;;
51485;SDS011;37565;51.352;6.412;2023-01-28T19:46:55;3.20;;;2.90;;
51485;SDS011;37565;51.352;6.412;2023-01-28T19:49:23;3.72;;;3.28;;
51485;SDS011;37565;51.352;6.412;2023-01-28T19:51:52;3.35;;;2.88;;
51485;SDS011;37565;51.352;6.412;2023-01-28T19:54:20;5.38;;;3.67;;
51485;SDS011;37565;51.352;6.412;2023-01-28T19:56:48;5.82;;;3.33;;
51485;SDS011;37565;51.352;6.412;2023-01-28T19:59:16;3.78;;;3.38;;
51485;SDS011;37565;51.352;6.412;2023-01-28T20:01:44;3.58;;;3.17;;
51485;SDS011;37565;51.352;6.412;2023-01-28T20:04:13;6.47;;;3.67;;
51485;SDS011;37565;51.352;6.412;2023-01-28T20:06:40;3.65;;;3.08;;
51485;SDS011;37565;51.352;6.412;2023-01-28T20:09:12;7.15;;;4.72;;
51485;SDS011;37565;51.352;6.412;2023-01-28T20:11:41;6.47;;;4.15;;
51485;SDS011;37565;51.352;6.412;2023-01-28T20:14:09;6.07;;;4.35;;
51485;SDS011;37565;51.352;6.412;2023-01-28T20:16:39;5.07;;;4.57;;
51485;SDS011;37565;51.352;6.412;2023-01-28T20:19:12;9.15;;;4.93;;
51485;SDS011;37565;51.352;6.412;2023-01-28T20:21:41;6.15;;;4.32;;
51485;SDS011;37565;51.352;6.412;2023-01-28T20:24:11;4.82;;;4.13;;
51485;SDS011;37565;51.352;6.412;2023-01-28T20:26:40;5.30;;;4.55;;
51485;SDS011;37565;51.352;6.412;2023-01-28T20:29:10;5.13;;;4.35;;
51485;SDS011;37565;51.352;6.412;2023-01-28T20:31:42;6.30;;;4.28;;
51485;SDS011;37565;51.352;6.412;2023-01-28T20:34:11;5.25;;;3.97;;
51485;SDS011;37565;51.352;6.412;2023-01-28T20:36:41;7.57;;;4.75;;
51485;SDS011;37565;51.352;6.412;2023-01-28T20:39:11;4.93;;;4.22;;
51485;SDS011;37565;51.352;6.412;2023-01-28T20:41:40;5.35;;;4.40;;
51485;SDS011;37565;51.352;6.412;2023-01-28T20:44:08;7.07;;;4.38;;
51485;SDS011;37565;51.352;6.412;2023-01-28T20:46:36;8.50;;;4.20;;
51485;SDS011;37565;51.352;6.412;2023-01-28T20:49:04;5.10;;;4.57;;
51485;SDS011;37565;51.352;6.412;2023-01-28T20:51:32;5.80;;;5.20;;
51485;SDS011;37565;51.352;6.412;2023-01-28T20:54:02;5.22;;;4.57;;
51485;SDS011;37565;51.352;6.412;2023-01-28T20:56:32;4.95;;;4.35;;
51485;SDS011;37565;51.352;6.412;2023-01-28T20:59:00;7.45;;;3.80;;
51485;SDS011;37565;51.352;6.412;2023-01-28T21:01:30;5.07;;;4.40;;
51485;SDS011;37565;51.352;6.412;2023-01-28T21:04:00;6.43;;;4.90;;
51485;SDS011;37565;51.352;6.412;2023-01-28T21:06:30;4.60;;;3.92;;
51485;SDS011;37565;51.352;6.412;2023-01-28T21:08:59;5.70;;;4.93;;
51485;SDS011;37565;51.352;6.412;2023-01-28T21:11:27;5.78;;;4.20;;
51485;SDS011;37565;51.352;6.412;2023-01-28T21:13:57;7.07;;;4.35;;
51485;SDS011;37565;51.352;6.412;2023-01-28T21:16:25;8.60;;;4.35;;
51485;SDS011;37565;51.352;6.412;2023-01-28T21:18:53;5.65;;;4.30;;
51485;SDS011;37565;51.352;6.412;2023-01-28T21:21:23;7.43;;;4.47;;
51485;SDS011;37565;51.352;6.412;2023-01-28T21:23:53;8.38;;;4.47;;
51485;SDS011;37565;51.352;6.412;2023-01-28T21:26:23;6.47;;;4.65;;
51485;SDS011;37565;51.352;6.412;2023-01-28T21:28:53;7.20;;;4.55;;
51485;SDS011;37565;51.352;6.412;2023-01-28T21:31:23;6.53;;;5.28;;
51485;SDS011;37565;51.352;6.412;2023-01-28T21:33:53;5.38;;;4.60;;
51485;SDS011;37565;51.352;6.412;2023-01-28T21:36:23;6.10;;;4.43;;
51485;SDS011;37565;51.352;6.412;2023-01-28T21:38:52;5.88;;;4.60;;
51485;SDS011;37565;51.352;6.412;2023-01-28T21:41:21;5.45;;;4.05;;
51485;SDS011;37565;51.352;6.412;2023-01-28T21:43:49;7.68;;;4.82;;
51485;SDS011;37565;51.352;6.412;2023-01-28T21:46:19;7.10;;;4.82;;
51485;SDS011;37565;51.352;6.412;2023-01-28T21:48:48;4.88;;;4.47;;
51485;SDS011;37565;51.352;6.412;2023-01-28T21:51:20;4.50;;;4.00;;
51485;SDS011;37565;51.352;6.412;2023-01-28T21:54:02;8.45;;;4.38;;
51485;SDS011;37565;51.352;6.412;2023-01-28T21:56:31;6.35;;;4.75;;
51485;SDS011;37565;51.352;6.412;2023-01-28T21:59:00;5.93;;;5.30;;
51485;SDS011;37565;51.352;6.412;2023-01-28T22:01:45;4.93;;;4.53;;
51485;SDS011;37565;51.352;6.412;2023-01-28T22:04:15;5.07;;;4.57;;
51485;SDS011;37565;51.352;6.412;2023-01-28T22:06:43;5.32;;;4.63;;
51485;SDS011;37565;51.352;6.412;2023-01-28T22:09:11;5.53;;;5.03;;
51485;SDS011;37565;51.352;6.412;2023-01-28T22:11:39;8.57;;;5.22;;
51485;SDS011;37565;51.352;6.412;2023-01-28T22:14:09;6.05;;;4.57;;
51485;SDS011;37565;51.352;6.412;2023-01-28T22:16:37;5.72;;;5.07;;
51485;SDS011;37565;51.352;6.412;2023-01-28T22:19:05;6.82;;;4.90;;
51485;SDS011;37565;51.352;6.412;2023-01-28T22:21:35;5.15;;;4.65;;
51485;SDS011;37565;51.352;6.412;2023-01-28T22:24:07;7.07;;;4.95;;
51485;SDS011;37565;51.352;6.412;2023-01-28T22:26:37;7.68;;;5.75;;
51485;SDS011;37565;51.352;6.412;2023-01-28T22:29:05;6.13;;;5.10;;
51485;SDS011;37565;51.352;6.412;2023-01-28T22:31:34;8.02;;;5.47;;
51485;SDS011;37565;51.352;6.412;2023-01-28T22:34:03;6.18;;;5.22;;
51485;SDS011;37565;51.352;6.412;2023-01-28T22:36:32;10.35;;;5.25;;
51485;SDS011;37565;51.352;6.412;2023-01-28T22:39:02;6.00;;;4.85;;
51485;SDS011;37565;51.352;6.412;2023-01-28T22:41:32;5.82;;;5.03;;
51485;SDS011;37565;51.352;6.412;2023-01-28T22:44:00;5.07;;;4.55;;
51485;SDS011;37565;51.352;6.412;2023-01-28T22:46:29;5.82;;;4.75;;
51485;SDS011;37565;51.352;6.412;2023-01-28T22:48:58;6.55;;;5.88;;
51485;SDS011;37565;51.352;6.412;2023-01-28T22:51:27;6.57;;;5.40;;
51485;SDS011;37565;51.352;6.412;2023-01-28T22:53:57;5.68;;;4.63;;
51485;SDS011;37565;51.352;6.412;2023-01-28T22:56:27;6.10;;;4.88;;
51485;SDS011;37565;51.352;6.412;2023-01-28T22:58:56;8.75;;;5.22;;
51485;SDS011;37565;51.352;6.412;2023-01-28T23:01:26;5.70;;;5.20;;
51485;SDS011;37565;51.352;6.412;2023-01-28T23:03:54;5.60;;;4.93;;
51485;SDS011;37565;51.352;6.412;2023-01-28T23:06:23;5.97;;;4.78;;
51485;SDS011;37565;51.352;6.412;2023-01-28T23:08:52;5.75;;;5.25;;
51485;SDS011;37565;51.352;6.412;2023-01-28T23:11:21;6.22;;;5.47;;
51485;SDS011;37565;51.352;6.412;2023-01-28T23:13:55;5.60;;;5.10;;
51485;SDS011;37565;51.352;6.412;2023-01-28T23:16:42;6.78;;;5.30;;
51485;SDS011;37565;51.352;6.412;2023-01-28T23:19:27;5.32;;;4.82;;
51485;SDS011;37565;51.352;6.412;2023-01-28T23:22:13;5.28;;;4.75;;
51485;SDS011;37565;51.352;6.412;2023-01-28T23:25:01;7.10;;;5.65;;
51485;SDS011;37565;51.352;6.412;2023-01-28T23:27:29;6.63;;;5.07;;
51485;SDS011;37565;51.352;6.412;2023-01-28T23:29:58;6.00;;;5.50;;
51485;SDS011;37565;51.352;6.412;2023-01-28T23:32:26;8.50;;;5.32;;
51485;SDS011;37565;51.352;6.412;2023-01-28T23:34:54;8.85;;;5.47;;
51485;SDS011;37565;51.352;6.412;2023-01-28T23:37:22;6.15;;;5.55;;
51485;SDS011;37565;51.352;6.412;2023-01-28T23:39:50;6.20;;;5.25;;
51485;SDS011;37565;51.352;6.412;2023-01-28T23:42:18;6.55;;;5.63;;
51485;SDS011;37565;51.352;6.412;2023-01-28T23:44:48;7.18;;;5.70;;
51485;SDS011;37565;51.352;6.412;2023-01-28T23:47:18;5.75;;;5.25;;
51485;SDS011;37565;51.352;6.412;2023-01-28T23:49:45;8.68;;;5.35;;
51485;SDS011;37565;51.352;6.412;2023-01-28T23:52:13;7.93;;;5.63;;
51485;SDS011;37565;51.352;6.412;2023-01-28T23:54:41;6.07;;;5.47;;
51485;SDS011;37565;51.352;6.412;2023-01-28T23:57:09;7.55;;;5.28;;
51485;SDS011;37565;51.352;6.412;2023-01-28T23:59:37;6.05;;;5.30;;
